Epworth Heights, Ohio
Current Conditions -  °F | °C
As of 11:53 PM on Tuesday 25 Nov 2014 (Local Time) from KLUK Reporting Station
Clear Clear  
Wind Chill: 29°   Ceiling: Unl
Heat Index: 33°   Visibility: 9mi
Dew Point: 27°   Wind: 5mph
Humidity: 78%   Direction: 30°NNE
Pressure: 30.2"   Gusts: NA
Location:  39.23°N, 84.2394°W
Report Text: KLUK 260453Z AUTO 03004KT 9SM CLR 01/M03 A3020 RMK AO2 SLP228 T00061028 400720006
Loading
Personal Weather Stations






























Interactive Weather Map New forecast layout! Learn more

10-Day Weather Forecast

Advertisements
Track Severe Weather on mobile